Time;durP1;ratioP1;P1;durP2;ratioP2;P2;SDS_P1;SDS_P2;PMS_P1;PMS_P2;Temp;Humidity;BMP_temperature;BMP_pressure;BME280_temperature;BME280_humidity;BME280_pressure;Samples;Min_cycle;Max_cycle;Signal;HPM_P1;HPM_P2
2022/12/23 00:01:02;;;;;;;;;0.00;0.00;;;;;16.02;100.00;100352.31;5006690;28;45708;-79
2022/12/23 00:03:30;;;;;;;;;0.25;0.25;;;;;16.02;100.00;100348.72;5008516;28;45493;-79
2022/12/23 00:05:55;;;;;;;;;0.75;0.75;;;;;16.01;100.00;100345.09;5002060;28;45454;-74
2022/12/23 00:08:22;;;;;;;;;0.00;0.00;;;;;16.03;100.00;100348.47;5015106;28;45374;-75
2022/12/23 00:10:50;;;;;;;;;1.00;0.25;;;;;15.98;100.00;100344.78;4995562;28;45852;-74
2022/12/23 00:16:08;;;;;;;;;1.25;0.00;;;;;16.09;100.00;100349.34;5011071;28;45844;-77
2022/12/23 00:18:34;;;;;;;;;1.25;0.00;;;;;16.06;100.00;100353.50;4999058;28;47402;-73
2022/12/23 00:21:05;;;;;;;;;1.00;0.00;;;;;16.01;100.00;100342.34;4999339;28;45376;-74
2022/12/23 00:23:32;;;;;;;;;4.25;0.00;;;;;16.09;100.00;100351.31;5004525;28;45501;-73
2022/12/23 00:25:58;;;;;;;;;2.00;2.00;;;;;16.13;100.00;100358.00;5010768;28;45493;-74
2022/12/23 00:28:24;;;;;;;;;0.25;0.25;;;;;16.13;100.00;100360.78;5005363;28;47131;-72
2022/12/23 00:30:54;;;;;;;;;2.50;1.00;;;;;16.10;100.00;100350.22;5017935;28;45492;-74
2022/12/23 00:33:23;;;;;;;;;4.00;2.67;;;;;16.14;100.00;100356.91;4996796;28;45869;-74
2022/12/23 00:35:49;;;;;;;;;30.00;18.67;;;;;16.15;100.00;100358.56;5012981;28;45708;-73
2022/12/23 00:42:52;;;;;;;;;10.33;8.67;;;;;16.16;100.00;100357.50;5025474;28;45750;-73
2022/12/23 00:43:46;;;;;;;;;2.25;0.75;;;;;16.14;100.00;100343.91;5019225;28;45427;-77
2022/12/23 00:46:11;;;;;;;;;1.25;0.00;;;;;16.13;100.00;100344.16;5021998;28;45456;-76
2022/12/23 00:51:20;;;;;;;;;0.00;0.00;;;;;16.00;100.00;100354.53;5012564;28;45486;-75
2022/12/23 00:53:46;;;;;;;;;0.00;0.00;;;;;16.08;100.00;100371.75;5013831;28;45307;-74
2022/12/23 00:56:11;;;;;;;;;0.00;0.00;;;;;16.07;100.00;100370.91;5023318;28;45411;-75
2022/12/23 00:58:36;;;;;;;;;0.75;0.00;;;;;16.03;100.00;100376.13;5016929;28;45731;-74
2022/12/23 01:06:30;;;;;;;;;0.00;0.00;;;;;15.96;100.00;100396.75;5011214;28;45678;-73
2022/12/23 01:08:55;;;;;;;;;0.00;0.00;;;;;16.00;100.00;100397.91;5001543;28;46988;-77
2022/12/23 01:11:21;;;;;;;;;0.00;0.00;;;;;16.00;100.00;100382.19;4997614;28;45744;-77
2022/12/23 01:13:46;;;;;;;;;0.00;0.00;;;;;15.91;100.00;100386.44;5007040;28;45752;-72
2022/12/23 01:16:11;;;;;;;;;2.00;1.00;;;;;15.97;100.00;100384.59;5003500;28;45386;-75
2022/12/23 01:18:37;;;;;;;;;1.25;0.75;;;;;16.01;100.00;100383.84;5010746;28;46112;-75
2022/12/23 01:21:05;;;;;;;;;0.00;0.00;;;;;16.00;100.00;100379.41;4986661;28;45860;-74
2022/12/23 01:23:31;;;;;;;;;1.00;1.00;;;;;15.98;100.00;100373.28;4992943;28;45617;-73
2022/12/23 01:26:01;;;;;;;;;1.00;1.00;;;;;16.03;100.00;100383.56;5012887;28;45866;-73
2022/12/23 01:28:28;;;;;;;;;0.25;0.25;;;;;15.98;100.00;100383.50;5001195;28;45637;-73
2022/12/23 01:30:54;;;;;;;;;0.00;0.00;;;;;16.02;100.00;100385.50;5014799;28;45922;-73
2022/12/23 01:33:20;;;;;;;;;1.25;1.25;;;;;16.03;100.00;100392.72;5014085;28;45748;-73
2022/12/23 01:35:45;;;;;;;;;1.00;0.00;;;;;16.06;100.00;100396.91;4995461;28;45557;-72
2022/12/23 01:38:11;;;;;;;;;0.00;0.00;;;;;16.08;100.00;100389.19;5018586;28;45561;-72
2022/12/23 01:40:38;;;;;;;;;1.00;0.00;;;;;16.10;100.00;100391.72;5009515;28;45444;-74
2022/12/23 01:43:04;;;;;;;;;0.00;0.00;;;;;16.11;100.00;100397.00;5014352;28;45376;-74
2022/12/23 01:45:31;;;;;;;;;0.00;0.00;;;;;16.12;100.00;100395.06;5022677;28;45666;-77
2022/12/23 01:48:05;;;;;;;;;0.50;0.50;;;;;16.13;100.00;100393.97;5029895;28;45727;-76
2022/12/23 01:50:38;;;;;;;;;0.00;0.00;;;;;16.14;100.00;100390.13;5006665;28;46429;-76
2022/12/23 01:53:29;;;;;;;;;1.00;1.00;;;;;16.19;100.00;100391.00;4994660;28;45395;-77
2022/12/23 01:56:04;;;;;;;;;0.75;0.75;;;;;16.17;100.00;100389.59;5019281;28;45864;-76
2022/12/23 01:58:37;;;;;;;;;1.00;0.00;;;;;16.15;100.00;100397.31;5017712;28;45744;-75
2022/12/23 02:03:54;;;;;;;;;0.00;0.00;;;;;16.09;100.00;100390.84;5004468;28;45428;-77
2022/12/23 02:09:16;;;;;;;;;0.50;0.50;;;;;16.08;100.00;100393.88;5014122;28;46177;-76
2022/12/23 02:12:03;;;;;;;;;0.00;0.00;;;;;15.99;100.00;100399.03;5027508;28;45804;-76
2022/12/23 02:17:45;;;;;;;;;0.00;0.00;;;;;15.97;100.00;100392.91;5009643;28;45371;-78
2022/12/23 02:20:25;;;;;;;;;0.00;0.00;;;;;15.97;100.00;100382.69;4992643;28;46247;-74
2022/12/23 02:23:09;;;;;;;;;0.50;0.00;;;;;15.98;100.00;100383.50;5009259;28;45423;-72
2022/12/23 02:26:01;;;;;;;;;0.00;0.00;;;;;15.99;100.00;100372.19;5023082;28;45565;-73
2022/12/23 02:28:36;;;;;;;;;0.67;0.67;;;;;16.03;100.00;100381.66;5007971;28;45592;-72
2022/12/23 02:31:12;;;;;;;;;0.00;0.00;;;;;16.01;100.00;100374.72;5020436;28;45666;-73
2022/12/23 02:33:54;;;;;;;;;0.00;0.00;;;;;16.03;100.00;100378.91;4993732;28;45427;-72
2022/12/23 02:36:45;;;;;;;;;1.00;1.00;;;;;16.02;100.00;100382.75;5011088;28;45763;-73
2022/12/23 02:39:29;;;;;;;;;0.00;0.00;;;;;16.04;100.00;100377.78;5011546;28;45400;-73
2022/12/23 02:42:05;;;;;;;;;0.00;0.00;;;;;16.09;100.00;100373.44;5015990;28;45544;-74
2022/12/23 02:44:44;;;;;;;;;0.00;0.00;;;;;16.05;100.00;100368.41;5024619;28;45684;-72
2022/12/23 02:47:13;;;;;;;;;0.00;0.00;;;;;16.08;100.00;100375.38;5003185;28;45422;-74
2022/12/23 02:49:42;;;;;;;;;0.33;0.00;;;;;16.05;100.00;100373.94;5014156;28;45952;-75
2022/12/23 02:52:13;;;;;;;;;0.00;0.00;;;;;16.03;100.00;100375.28;4990734;28;48163;-72
2022/12/23 02:54:45;;;;;;;;;0.00;0.00;;;;;16.03;100.00;100370.59;4997381;28;45687;-73
2022/12/23 02:57:15;;;;;;;;;0.00;0.00;;;;;16.01;100.00;100366.41;5020993;28;45636;-73
2022/12/23 02:59:48;;;;;;;;;0.33;0.33;;;;;15.99;100.00;100374.97;5025774;28;45541;-73
2022/12/23 03:02:13;;;;;;;;;0.25;0.25;;;;;16.00;100.00;100376.66;5009628;28;46428;-73
2022/12/23 03:04:40;;;;;;;;;0.00;0.00;;;;;15.97;100.00;100368.84;4972959;28;45432;-73
2022/12/23 03:07:16;;;;;;;;;0.00;0.00;;;;;15.96;100.00;100380.16;4991151;28;45816;-73
2022/12/23 03:10:02;;;;;;;;;0.00;0.00;;;;;15.95;100.00;100384.03;4993777;28;45781;-73
2022/12/23 03:12:54;;;;;;;;;0.00;0.00;;;;;15.91;100.00;100382.84;4991073;28;45828;-74
2022/12/23 03:15:33;;;;;;;;;0.00;0.00;;;;;15.89;100.00;100381.16;4984020;28;45441;-74
2022/12/23 03:18:32;;;;;;;;;0.00;0.00;;;;;15.87;100.00;100365.94;5002586;28;45771;-74
2022/12/23 03:21:13;;;;;;;;;3.00;0.25;;;;;15.86;100.00;100350.44;4994385;28;45728;-73
2022/12/23 03:23:47;;;;;;;;;2.33;1.33;;;;;15.88;100.00;100353.75;4994028;28;45822;-73
2022/12/23 03:26:22;;;;;;;;;1.00;1.00;;;;;15.85;100.00;100362.56;4999954;28;45797;-74
2022/12/23 03:28:57;;;;;;;;;0.50;0.00;;;;;15.87;100.00;100371.47;5007953;28;45702;-74
2022/12/23 03:31:27;;;;;;;;;0.00;0.00;;;;;15.86;100.00;100364.25;5002056;28;46059;-72
2022/12/23 03:33:59;;;;;;;;;2.75;1.00;;;;;15.79;100.00;100364.41;4995823;28;45645;-77
2022/12/23 03:36:30;;;;;;;;;1.00;1.00;;;;;15.82;100.00;100363.09;4996508;28;45743;-74
2022/12/23 03:38:56;;;;;;;;;0.50;0.50;;;;;15.80;100.00;100370.81;4990103;28;45838;-73
2022/12/23 03:41:29;;;;;;;;;1.00;0.00;;;;;15.74;100.00;100361.56;4987158;28;45423;-78
2022/12/23 03:44:02;;;;;;;;;0.00;0.00;;;;;15.75;100.00;100374.28;4978228;28;46158;-77
2022/12/23 03:46:40;;;;;;;;;0.75;0.75;;;;;15.75;100.00;100370.66;4979901;28;45329;-76
2022/12/23 03:49:16;;;;;;;;;1.00;1.00;;;;;15.77;100.00;100365.75;4990344;28;45413;-76
2022/12/23 03:51:49;;;;;;;;;2.00;1.00;;;;;15.66;100.00;100360.06;4984898;28;45876;-75
2022/12/23 03:54:21;;;;;;;;;0.00;0.00;;;;;15.74;100.00;100361.56;4982858;28;45680;-77
2022/12/23 03:56:56;;;;;;;;;5.00;1.00;;;;;15.69;100.00;100365.06;4978815;28;45393;-76
2022/12/23 03:59:28;;;;;;;;;1.75;1.00;;;;;15.66;100.00;100370.28;4979668;28;45658;-72
2022/12/23 04:02:14;;;;;;;;;0.00;0.00;;;;;15.67;100.00;100366.41;4989476;28;45421;-74
2022/12/23 04:04:48;;;;;;;;;1.00;1.00;;;;;15.62;100.00;100367.16;4998745;28;45696;-73
2022/12/23 04:07:26;;;;;;;;;1.00;0.00;;;;;15.55;100.00;100358.19;4996681;28;45749;-76
2022/12/23 04:09:52;;;;;;;;;0.50;0.00;;;;;15.62;100.00;100347.81;5002684;28;45735;-76
2022/12/23 04:12:21;;;;;;;;;1.00;1.00;;;;;15.59;100.00;100336.44;4999155;28;45554;-76
2022/12/23 04:14:48;;;;;;;;;3.00;0.00;;;;;15.56;100.00;100334.19;5005401;28;46280;-75
2022/12/23 04:17:15;;;;;;;;;1.67;1.67;;;;;15.53;100.00;100343.81;5007420;28;45454;-76
2022/12/23 04:19:44;;;;;;;;;2.25;1.00;;;;;15.48;100.00;100329.94;5006525;28;45683;-76
2022/12/23 04:22:10;;;;;;;;;2.67;1.00;;;;;15.50;100.00;100338.78;4989963;28;45949;-75
2022/12/23 04:24:35;;;;;;;;;2.00;0.33;;;;;15.50;100.00;100339.63;4997177;28;45480;-75
2022/12/23 04:27:01;;;;;;;;;3.33;1.00;;;;;15.52;100.00;100345.75;4996168;28;45376;-75
2022/12/23 04:29:26;;;;;;;;;2.00;0.33;;;;;15.49;100.00;100340.72;4999395;28;45821;-76
2022/12/23 04:31:51;;;;;;;;;4.33;1.00;;;;;15.53;100.00;100358.47;5001089;28;45427;-76
2022/12/23 04:34:17;;;;;;;;;0.00;0.00;;;;;15.52;100.00;100348.50;5012860;28;45703;-74
2022/12/23 04:36:42;;;;;;;;;1.75;0.00;;;;;15.50;100.00;100344.31;5003326;28;45712;-72
2022/12/23 04:39:08;;;;;;;;;0.00;0.00;;;;;15.49;100.00;100348.16;4981685;28;45455;-76
2022/12/23 04:41:34;;;;;;;;;1.00;0.00;;;;;15.45;100.00;100344.22;4998328;28;45794;-73
2022/12/23 04:43:59;;;;;;;;;0.50;0.00;;;;;15.45;100.00;100344.22;4998797;28;45446;-78
2022/12/23 04:46:24;;;;;;;;;1.25;0.75;;;;;15.42;100.00;100329.00;5002263;28;45635;-74
2022/12/23 04:48:50;;;;;;;;;1.50;0.75;;;;;15.46;100.00;100338.44;5005049;28;45720;-74
2022/12/23 04:51:15;;;;;;;;;1.00;0.00;;;;;15.50;100.00;100338.78;5004692;28;45455;-73
2022/12/23 04:53:41;;;;;;;;;0.00;0.00;;;;;15.48;100.00;100329.94;5006219;28;45871;-72
2022/12/23 04:56:06;;;;;;;;;1.00;1.00;;;;;15.53;100.00;100327.22;5007636;28;45499;-73
2022/12/23 04:58:31;;;;;;;;;0.00;0.00;;;;;15.56;100.00;100326.72;5005760;28;45670;-76
2022/12/23 05:01:07;;;;;;;;;0.00;0.00;;;;;15.60;100.00;100325.13;5014231;28;45673;-76
2022/12/23 05:03:32;;;;;;;;;0.25;0.00;;;;;15.61;100.00;100315.72;5003444;28;46049;-76
2022/12/23 05:05:58;;;;;;;;;1.00;1.00;;;;;15.57;100.00;100309.06;4984191;28;45761;-75
2022/12/23 05:08:23;;;;;;;;;3.00;2.00;;;;;15.70;100.00;100328.06;5006747;28;45500;-76
2022/12/23 05:10:49;;;;;;;;;0.25;0.00;;;;;15.79;100.00;100325.69;5000651;28;45412;-75
2022/12/23 05:13:14;;;;;;;;;3.00;1.67;;;;;15.83;100.00;100326.06;5001380;28;46180;-73
2022/12/23 05:15:48;;;;;;;;;3.25;0.75;;;;;15.88;100.00;100324.19;5000015;28;45446;-74
2022/12/23 05:18:13;;;;;;;;;0.00;0.00;;;;;15.93;100.00;100326.19;5002745;28;45622;-73
2022/12/23 05:20:38;;;;;;;;;3.25;1.00;;;;;15.97;100.00;100312.69;5002228;28;45435;-74
2022/12/23 05:23:04;;;;;;;;;1.00;1.00;;;;;16.01;100.00;100309.16;4997987;28;45591;-74
2022/12/23 05:25:32;;;;;;;;;3.00;2.00;;;;;16.11;100.00;100313.13;4991258;28;45490;-72
2022/12/23 05:27:57;;;;;;;;;0.25;0.00;;;;;16.16;100.00;100302.16;4991629;28;45827;-75
2022/12/23 05:30:23;;;;;;;;;0.00;0.00;;;;;16.16;100.00;100311.28;4997150;28;45429;-75
2022/12/23 05:32:52;;;;;;;;;0.67;0.00;;;;;16.19;100.00;100305.22;4979742;28;46913;-74
2022/12/23 05:35:18;;;;;;;;;18.67;15.00;;;;;16.22;100.00;100301.94;5097683;23;47264;-73
2022/12/23 05:37:43;;;;;;;;;1.67;1.67;;;;;16.23;100.00;100313.88;4975675;28;45836;-74
2022/12/23 05:40:09;;;;;;;;;2.00;1.00;;;;;16.22;100.00;100312.19;4986086;28;45520;-73
2022/12/23 05:42:34;;;;;;;;;3.00;2.00;;;;;16.23;100.00;100300.88;4982574;28;46843;-73
2022/12/23 05:45:00;;;;;;;;;0.75;0.75;;;;;16.24;100.00;100288.72;4984572;28;45868;-74
2022/12/23 05:47:25;;;;;;;;;0.00;0.00;;;;;16.24;100.00;100293.38;5001750;28;45719;-73
2022/12/23 05:49:50;;;;;;;;;2.00;0.00;;;;;16.24;100.00;100291.47;4967564;28;45392;-74
2022/12/23 05:52:16;;;;;;;;;1.00;1.00;;;;;16.23;100.00;100280.66;4985777;28;45279;-72
2022/12/23 05:54:41;;;;;;;;;4.67;2.67;;;;;16.26;100.00;100280.16;4971069;28;45802;-72
2022/12/23 05:57:07;;;;;;;;;0.50;0.50;;;;;16.26;100.00;100282.91;4966291;28;45735;-70
2022/12/23 05:59:32;;;;;;;;;2.00;0.75;;;;;16.27;100.00;100284.56;4974467;28;46667;-71
2022/12/23 06:01:57;;;;;;;;;1.00;1.00;;;;;16.27;100.00;100287.34;4995534;28;46151;-70
2022/12/23 06:04:23;;;;;;;;;1.50;1.50;;;;;16.28;100.00;100289.03;4982812;28;45625;-71
2022/12/23 06:06:48;;;;;;;;;2.75;1.00;;;;;16.29;100.00;100292.63;4976912;28;45575;-74
2022/12/23 06:09:14;;;;;;;;;0.00;0.00;;;;;16.22;100.00;100279.81;4984886;28;45446;-70
2022/12/23 06:11:39;;;;;;;;;0.00;0.00;;;;;16.18;100.00;100272.28;4980004;28;46366;-71
2022/12/23 06:14:06;;;;;;;;;0.00;0.00;;;;;16.30;100.00;100286.00;4991194;28;45322;-72
2022/12/23 06:16:32;;;;;;;;;0.00;0.00;;;;;16.33;100.00;100282.72;4985525;28;45935;-74
2022/12/23 06:18:58;;;;;;;;;0.75;0.75;;;;;16.34;100.00;100276.91;4998738;28;45493;-74
2022/12/23 06:21:26;;;;;;;;;1.75;0.00;;;;;16.34;100.00;100289.94;4995740;28;45739;-73
2022/12/23 06:23:52;;;;;;;;;0.25;0.00;;;;;16.33;100.00;100291.88;4992881;28;45415;-75
2022/12/23 06:26:17;;;;;;;;;0.00;0.00;;;;;16.34;100.00;100285.22;5003177;28;45644;-77
2022/12/23 06:28:43;;;;;;;;;1.50;0.00;;;;;16.36;100.00;100280.28;4995136;28;46419;-77
2022/12/23 06:31:08;;;;;;;;;0.00;0.00;;;;;16.37;100.00;100284.69;4996571;28;45985;-77
2022/12/23 06:33:34;;;;;;;;;0.00;0.00;;;;;16.42;100.00;100281.16;4970568;28;45495;-74
2022/12/23 06:35:59;;;;;;;;;0.50;0.00;;;;;16.42;100.00;100268.16;4982656;28;45771;-73
2022/12/23 06:38:24;;;;;;;;;1.25;0.75;;;;;16.40;100.00;100263.97;4981206;28;45415;-75
2022/12/23 06:40:50;;;;;;;;;0.00;0.00;;;;;16.39;100.00;100265.06;4985958;28;47115;-76
2022/12/23 06:43:15;;;;;;;;;0.50;0.50;;;;;16.39;100.00;100262.28;4980288;28;45648;-75
2022/12/23 06:45:45;;;;;;;;;0.00;0.00;;;;;16.41;100.00;100260.94;4982924;28;46357;-72
2022/12/23 06:48:10;;;;;;;;;0.50;0.00;;;;;16.42;100.00;100262.63;4993874;28;45823;-73
2022/12/23 06:50:36;;;;;;;;;2.50;0.00;;;;;16.38;100.00;100252.34;4998565;28;46421;-73
2022/12/23 06:53:01;;;;;;;;;0.00;0.00;;;;;16.33;100.00;100236.53;4986183;28;45669;-74
2022/12/23 06:55:27;;;;;;;;;0.00;0.00;;;;;16.41;100.00;100244.34;4991244;28;45546;-73
2022/12/23 06:57:52;;;;;;;;;1.00;0.00;;;;;16.37;100.00;100243.19;4981376;28;45609;-72
2022/12/23 07:00:18;;;;;;;;;0.00;0.00;;;;;16.36;100.00;100232.38;4987609;28;45866;-74
2022/12/23 07:02:44;;;;;;;;;1.00;0.00;;;;;16.37;100.00;100228.53;4981174;28;45461;-74
2022/12/23 07:05:10;;;;;;;;;0.00;0.00;;;;;16.35;100.00;100234.31;4961116;28;45669;-73
2022/12/23 07:07:35;;;;;;;;;0.00;0.00;;;;;16.30;100.00;100220.44;4982576;28;46051;-73
2022/12/23 07:10:01;;;;;;;;;0.00;0.00;;;;;16.36;100.00;100230.47;4971543;28;45372;-72
2022/12/23 07:12:26;;;;;;;;;0.00;0.00;;;;;16.27;100.00;100218.16;4988895;28;45800;-73
2022/12/23 07:14:52;;;;;;;;;0.00;0.00;;;;;16.41;100.00;100222.19;4992230;28;46003;-73
2022/12/23 07:17:17;;;;;;;;;0.00;0.00;;;;;16.41;100.00;100218.59;4987462;28;45488;-73
2022/12/23 07:19:42;;;;;;;;;0.00;0.00;;;;;16.44;100.00;100222.75;4996685;28;46909;-72
2022/12/23 07:22:11;;;;;;;;;1.00;1.00;;;;;16.49;100.00;100220.06;4993354;28;45467;-72
2022/12/23 07:24:37;;;;;;;;;0.00;0.00;;;;;16.49;100.00;100220.06;4992875;28;45358;-74
2022/12/23 07:27:02;;;;;;;;;0.50;0.50;;;;;16.51;100.00;100202.09;4992684;28;45308;-73
2022/12/23 07:29:28;;;;;;;;;1.25;1.00;;;;;16.55;100.00;100216.25;4998289;28;45628;-73
2022/12/23 07:31:53;;;;;;;;;1.00;1.00;;;;;16.54;100.00;100217.34;4991382;28;45479;-75
2022/12/23 07:34:19;;;;;;;;;1.00;1.00;;;;;16.50;100.00;100218.97;4990259;28;45637;-74
2022/12/23 07:36:44;;;;;;;;;0.00;0.00;;;;;16.54;100.00;100215.44;4980146;28;46189;-76
2022/12/23 07:39:10;;;;;;;;;1.00;0.00;;;;;16.49;100.00;100201.50;4988780;28;47090;-73
2022/12/23 07:41:35;;;;;;;;;1.00;0.00;;;;;16.59;100.00;100228.47;4992413;28;45453;-72
2022/12/23 07:44:01;;;;;;;;;0.00;0.00;;;;;16.56;100.00;100220.69;4983278;28;45763;-71
2022/12/23 07:46:26;;;;;;;;;1.33;1.33;;;;;16.55;100.00;100216.25;4985595;28;45967;-72
2022/12/23 07:48:51;;;;;;;;;1.50;1.00;;;;;16.60;100.00;100221.81;4985397;28;46628;-71
2022/12/23 07:51:17;;;;;;;;;0.00;0.00;;;;;16.63;100.00;100220.47;4986025;28;45411;-73
2022/12/23 07:53:42;;;;;;;;;0.50;0.50;;;;;16.58;100.00;100210.19;4984812;28;46494;-71
2022/12/23 07:56:08;;;;;;;;;0.00;0.00;;;;;16.71;100.00;100220.00;4990439;28;45676;-74
2022/12/23 07:58:33;;;;;;;;;0.00;0.00;;;;;16.69;100.00;100205.56;4991611;28;46313;-73
2022/12/23 08:01:06;;;;;;;;;0.00;0.00;;;;;16.66;100.00;100206.97;4992839;28;45499;-74
2022/12/23 08:03:32;;;;;;;;;1.50;0.00;;;;;16.68;100.00;100201.97;4981680;28;45448;-74
2022/12/23 08:05:59;;;;;;;;;1.50;0.00;;;;;16.70;100.00;100196.19;4973808;28;46151;-74
2022/12/23 08:08:24;;;;;;;;;1.25;0.00;;;;;16.74;100.00;100208.41;4996016;28;45721;-73
2022/12/23 08:10:50;;;;;;;;;0.25;0.00;;;;;16.73;100.00;100210.31;4982240;28;45449;-75
2022/12/23 08:13:15;;;;;;;;;0.00;0.00;;;;;16.68;100.00;100190.91;4989768;28;45511;-74
2022/12/23 08:15:41;;;;;;;;;0.00;0.00;;;;;16.79;100.00;100199.31;4975163;28;45583;-74
2022/12/23 08:18:06;;;;;;;;;0.00;0.00;;;;;16.79;100.00;100177.97;4994613;28;45374;-75
2022/12/23 08:20:31;;;;;;;;;0.00;0.00;;;;;16.93;100.00;100170.06;4990714;28;46209;-76
2022/12/23 08:22:57;;;;;;;;;0.00;0.00;;;;;16.98;100.00;100163.75;4998636;28;45289;-74
2022/12/23 08:25:22;;;;;;;;;0.00;0.00;;;;;16.94;100.00;100164.28;4983634;28;45405;-74
2022/12/23 08:27:49;;;;;;;;;0.00;0.00;;;;;16.94;100.00;100169.81;4980948;28;46055;-71
2022/12/23 08:30:15;;;;;;;;;0.00;0.00;;;;;16.97;100.00;100162.91;4983027;28;45803;-70
2022/12/23 08:32:40;;;;;;;;;1.00;0.00;;;;;16.93;100.00;100153.47;4974299;28;45775;-71
2022/12/23 08:35:06;;;;;;;;;0.00;0.00;;;;;16.87;100.00;100143.44;4981861;28;45553;-74
2022/12/23 08:37:32;;;;;;;;;0.00;0.00;;;;;16.90;100.00;100163.16;4982172;28;45823;-74
2022/12/23 08:39:57;;;;;;;;;0.00;0.00;;;;;16.88;100.00;100159.78;4979884;28;45520;-73
2022/12/23 08:42:23;;;;;;;;;0.00;0.00;;;;;16.87;100.00;100151.75;4987413;28;45908;-73
2022/12/23 08:44:48;;;;;;;;;0.00;0.00;;;;;16.90;100.00;100154.00;5005343;28;45411;-77
2022/12/23 08:47:13;;;;;;;;;0.00;0.00;;;;;16.81;100.00;100125.94;4973792;28;47125;-74
2022/12/23 08:49:39;;;;;;;;;1.00;0.00;;;;;16.90;100.00;100143.75;4994339;28;46123;-72
2022/12/23 08:52:05;;;;;;;;;0.00;0.00;;;;;16.86;100.00;100136.22;4988089;28;45392;-70
2022/12/23 08:54:30;;;;;;;;;0.00;0.00;;;;;16.77;100.00;100125.63;4984274;28;45482;-77
2022/12/23 08:56:55;;;;;;;;;2.50;1.50;;;;;16.81;100.00;100131.47;4993777;28;45483;-73
2022/12/23 08:59:21;;;;;;;;;0.00;0.00;;;;;16.77;100.00;100117.31;4988671;28;45851;-73
2022/12/23 09:01:46;;;;;;;;;0.00;0.00;;;;;16.75;100.00;100111.22;4991771;28;45460;-74
2022/12/23 09:04:11;;;;;;;;;0.00;0.00;;;;;16.78;100.00;100098.75;4992280;28;45687;-75
2022/12/23 09:06:39;;;;;;;;;1.00;0.00;;;;;16.72;100.00;100075.75;4993893;28;45820;-74
2022/12/23 09:09:06;;;;;;;;;0.00;0.00;;;;;16.68;100.00;100046.94;4976560;28;45731;-75
2022/12/23 09:11:32;;;;;;;;;0.00;0.00;;;;;16.64;100.00;100043.03;4987249;28;45487;-76
2022/12/23 09:13:59;;;;;;;;;0.50;0.00;;;;;16.65;100.00;100058.53;4986467;28;45942;-74
2022/12/23 09:16:26;;;;;;;;;0.00;0.00;;;;;16.62;100.00;100049.91;4982541;28;46196;-78
2022/12/23 09:18:52;;;;;;;;;0.00;0.00;;;;;16.59;100.00;100054.91;4978667;28;45493;-71
2022/12/23 09:21:19;;;;;;;;;1.75;1.75;;;;;16.62;100.00;100095.06;4990853;28;45689;-73
2022/12/23 09:23:45;;;;;;;;;0.00;0.00;;;;;16.62;100.00;100106.13;4990547;28;45786;-77
2022/12/23 09:26:23;;;;;;;;;0.00;0.00;;;;;16.63;100.00;100116.13;4980056;28;46243;-76
2022/12/23 09:28:55;;;;;;;;;0.00;0.00;;;;;16.67;100.00;100103.41;4978759;28;45852;-75
2022/12/23 09:31:22;;;;;;;;;0.00;0.00;;;;;16.75;100.00;100115.91;4990798;28;45355;-77
2022/12/23 09:33:49;;;;;;;;;0.00;0.00;;;;;16.75;100.00;100122.31;4990182;28;45763;-78
2022/12/23 09:36:16;;;;;;;;;1.00;1.00;;;;;16.74;100.00;100117.03;4998115;28;46027;-78
2022/12/23 09:38:41;;;;;;;;;0.00;0.00;;;;;16.79;100.00;100146.69;5005026;28;45845;-75
2022/12/23 09:41:25;;;;;;;;;0.00;0.00;;;;;16.85;100.00;100131.78;4993578;28;45768;-76
2022/12/23 09:44:18;;;;;;;;;0.25;0.00;;;;;16.88;100.00;100132.09;5001741;28;45435;-75
2022/12/23 09:46:50;;;;;;;;;0.75;0.00;;;;;16.91;100.00;100119.66;4980742;28;46625;-75
2022/12/23 09:49:17;;;;;;;;;1.75;0.00;;;;;16.92;100.00;100121.34;5005865;28;45514;-75
2022/12/23 09:51:46;;;;;;;;;5.50;5.50;;;;;16.92;100.00;100130.47;4988225;28;45772;-75
2022/12/23 09:54:19;;;;;;;;;1.00;0.00;;;;;16.99;100.00;100130.25;4997896;28;45835;-74
2022/12/23 09:56:56;;;;;;;;;0.00;0.00;;;;;17.02;100.00;100126.09;4999669;28;46295;-74
2022/12/23 09:59:21;;;;;;;;;0.00;0.00;;;;;17.06;100.00;100127.25;4978614;28;45948;-75
2022/12/23 10:02:07;;;;;;;;;1.00;1.00;;;;;17.07;100.00;100132.50;4972389;28;45640;-75
2022/12/23 10:04:44;;;;;;;;;0.50;0.50;;;;;17.04;100.00;100124.72;4978044;28;45251;-74
2022/12/23 10:07:30;;;;;;;;;0.00;0.00;;;;;17.11;100.00;100133.66;4980893;28;46554;-75
2022/12/23 10:09:58;;;;;;;;;0.00;0.00;;;;;17.14;100.00;100126.75;4960464;28;45919;-76
2022/12/23 10:12:38;;;;;;;;;1.00;0.00;;;;;17.15;100.00;100117.31;4971816;28;45657;-76
2022/12/23 10:15:17;;;;;;;;;0.00;0.00;;;;;17.19;100.00;100112.09;4978835;28;45649;-75
2022/12/23 10:17:44;;;;;;;;;0.75;0.00;;;;;17.21;100.00;100112.63;4986199;28;45510;-76
2022/12/23 10:20:19;;;;;;;;;1.00;0.00;;;;;17.23;100.00;100104.88;4980471;28;45483;-77
2022/12/23 10:22:46;;;;;;;;;0.00;0.00;;;;;17.29;100.00;100103.84;4976164;28;45533;-76
2022/12/23 10:25:23;;;;;;;;;0.00;0.00;;;;;17.27;100.00;100108.78;4979012;28;45794;-77
2022/12/23 10:27:48;;;;;;;;;0.00;0.00;;;;;17.32;100.00;100108.84;4957997;28;47455;-77
2022/12/23 10:30:17;;;;;;;;;0.00;0.00;;;;;17.28;100.00;100105.75;4979272;28;45589;-75
2022/12/23 10:33:01;;;;;;;;;0.00;0.00;;;;;17.29;100.00;100107.44;4980939;28;45591;-74
2022/12/23 10:35:45;;;;;;;;;0.00;0.00;;;;;17.29;100.00;100101.06;4971692;28;45568;-76
2022/12/23 10:38:39;;;;;;;;;0.00;0.00;;;;;17.32;100.00;100103.28;4990276;28;45356;-77
2022/12/23 10:41:32;;;;;;;;;1.00;0.00;;;;;17.34;100.00;100106.63;4991003;28;45676;-76
2022/12/23 10:44:19;;;;;;;;;0.00;0.00;;;;;17.38;100.00;100106.91;4968150;28;45689;-76
2022/12/23 10:47:11;;;;;;;;;0.00;0.00;;;;;17.39;100.00;100095.53;4954243;28;45651;-77
2022/12/23 10:50:01;;;;;;;;;1.00;0.00;;;;;17.46;100.00;100089.75;4961717;28;45435;-76
2022/12/23 10:52:31;;;;;;;;;0.25;0.00;;;;;17.46;100.00;100087.81;4969850;28;45785;-76
2022/12/23 10:54:56;;;;;;;;;0.00;0.00;;;;;17.59;100.00;100085.63;4954292;28;45780;-77
2022/12/23 10:57:23;;;;;;;;;0.00;0.00;;;;;17.70;100.00;100078.19;4955973;28;47236;-79
2022/12/23 10:59:49;;;;;;;;;0.00;0.00;;;;;17.73;100.00;100070.16;4965436;28;45379;-77
2022/12/23 11:02:26;;;;;;;;;0.00;0.00;;;;;17.87;100.00;100075.19;4955645;28;45691;-78
2022/12/23 11:04:52;;;;;;;;;1.00;0.00;;;;;17.85;100.00;100080.19;4954169;28;45562;-78
2022/12/23 11:07:26;;;;;;;;;1.00;1.00;;;;;17.93;100.00;100099.09;5018387;23;45583;-77
2022/12/23 11:10:20;;;;;;;;;0.00;0.00;;;;;17.96;100.00;100104.94;5005684;28;45491;-77
2022/12/23 11:12:52;;;;;;;;;0.50;0.00;;;;;17.97;100.00;100108.53;4995417;28;45768;-77
2022/12/23 11:15:26;;;;;;;;;0.75;0.00;;;;;17.96;100.00;100095.75;4999470;28;45414;-78
2022/12/23 11:18:10;;;;;;;;;1.00;0.00;;;;;18.00;100.00;100110.75;4980373;28;45421;-78
2022/12/23 11:20:37;;;;;;;;;0.00;0.00;;;;;18.05;100.00;100110.75;5010834;28;46794;-78
2022/12/23 11:23:05;;;;;;;;;0.00;0.00;;;;;18.00;100.00;100113.53;4999288;28;45383;-77
2022/12/23 11:25:35;;;;;;;;;0.00;0.00;;;;;18.02;100.00;100111.31;4998253;28;45952;-77
2022/12/23 11:28:14;;;;;;;;;0.00;0.00;;;;;18.01;100.00;100112.44;5003607;28;45955;-77
2022/12/23 11:30:53;;;;;;;;;0.00;0.00;;;;;18.04;100.00;100109.09;5005592;28;45601;-78
2022/12/23 11:33:26;;;;;;;;;0.00;0.00;;;;;18.28;100.00;100119.69;5013046;28;45501;-78
2022/12/23 11:36:13;;;;;;;;;1.00;0.00;;;;;18.39;100.00;100104.69;5030588;28;45622;-77
2022/12/23 11:39:00;;;;;;;;;0.00;0.00;;;;;18.38;100.00;100116.06;5032954;28;45623;-76
2022/12/23 11:41:33;;;;;;;;;0.00;0.00;;;;;18.32;100.00;100104.97;5002118;28;48089;-77
2022/12/23 11:44:24;;;;;;;;;0.00;0.00;;;;;18.35;100.00;100123.88;4996753;28;45702;-78
2022/12/23 11:46:50;;;;;;;;;1.00;0.00;;;;;18.40;100.00;100111.94;5012135;28;45869;-78
2022/12/23 11:49:25;;;;;;;;;0.00;0.00;;;;;18.34;100.00;100108.31;5026160;28;45393;-80
2022/12/23 11:52:03;;;;;;;;;0.25;0.00;;;;;18.41;100.00;100119.13;4997223;28;45490;-78